Time;durP1;ratioP1;P1;durP2;ratioP2;P2;SDS_P1;SDS_P2;PMS_P1;PMS_P2;Temp;Humidity;BMP_temperature;BMP_pressure;BME280_temperature;BME280_humidity;BME280_pressure;Samples;Min_cycle;Max_cycle;Signal;HPM_P1;HPM_P2
2023/04/14 00:01:49;;;;;;;6.27;3.17;;;7.80;58.50;;;;;;5093789;28;20175;-71
2023/04/14 00:04:15;;;;;;;5.20;3.37;;;7.80;59.00;;;;;;5093349;28;20539;-70
2023/04/14 00:06:41;;;;;;;9.20;3.40;;;7.70;59.90;;;;;;5093493;28;20233;-70
2023/04/14 00:09:06;;;;;;;7.10;2.80;;;7.70;59.70;;;;;;5093331;28;20175;-70
2023/04/14 00:11:32;;;;;;;9.10;3.47;;;7.70;58.30;;;;;;5093048;28;20164;-71
2023/04/14 00:14:00;;;;;;;5.80;2.80;;;7.70;58.80;;;;;;5093309;28;20631;-70
2023/04/14 00:16:25;;;;;;;8.90;4.20;;;7.70;58.60;;;;;;5093143;28;20237;-70
2023/04/14 00:18:51;;;;;;;7.47;3.37;;;7.60;60.30;;;;;;5093345;28;20244;-71
2023/04/14 00:21:16;;;;;;;5.80;2.87;;;7.60;61.70;;;;;;5093132;28;20247;-71
2023/04/14 00:23:42;;;;;;;6.37;3.00;;;7.60;58.50;;;;;;5093268;28;20176;-71
2023/04/14 00:26:08;;;;;;;9.87;3.17;;;7.60;56.70;;;;;;5092669;28;20294;-71
2023/04/14 00:28:33;;;;;;;3.80;2.87;;;7.50;51.40;;;;;;5093446;28;20222;-71
2023/04/14 00:30:59;;;;;;;4.60;3.10;;;7.50;51.70;;;;;;5091642;28;20172;-70
2023/04/14 00:33:25;;;;;;;4.73;2.43;;;7.50;51.50;;;;;;5093191;28;20172;-70
2023/04/14 00:35:50;;;;;;;4.97;2.90;;;7.40;52.30;;;;;;5092823;28;20180;-70
2023/04/14 00:38:16;;;;;;;4.90;2.60;;;7.40;51.80;;;;;;5092835;28;20250;-68
2023/04/14 00:40:41;;;;;;;6.97;2.50;;;7.40;51.10;;;;;;5092429;28;20192;-70
2023/04/14 00:43:07;;;;;;;3.63;2.73;;;7.40;52.40;;;;;;5093077;28;20239;-71
2023/04/14 00:45:44;;;;;;;5.03;2.47;;;7.40;53.00;;;;;;5091612;28;20207;-70
2023/04/14 00:48:14;;;;;;;3.57;2.53;;;7.40;55.30;;;;;;5093105;28;20707;-70
2023/04/14 00:50:40;;;;;;;4.63;2.50;;;7.30;52.80;;;;;;5092583;28;20175;-70
2023/04/14 00:53:05;;;;;;;4.70;2.70;;;7.30;54.40;;;;;;5093021;28;20241;-70
2023/04/14 00:55:32;;;;;;;4.57;2.70;;;7.20;55.50;;;;;;5092495;28;20232;-70
2023/04/14 00:58:00;;;;;;;7.20;2.80;;;7.30;56.70;;;;;;5093045;28;20168;-70
2023/04/14 01:00:26;;;;;;;5.20;2.80;;;7.30;55.10;;;;;;5092752;28;20191;-70
2023/04/14 01:02:52;;;;;;;3.43;2.73;;;7.20;55.50;;;;;;5091618;28;20180;-70
2023/04/14 01:05:17;;;;;;;4.40;2.90;;;7.30;56.10;;;;;;5092361;28;20219;-70
2023/04/14 01:07:44;;;;;;;7.50;2.90;;;7.20;56.00;;;;;;5092780;28;20168;-70
2023/04/14 01:10:10;;;;;;;4.73;3.00;;;7.30;54.40;;;;;;5092340;28;20654;-70
2023/04/14 01:13:14;;;;;;;8.63;2.80;;;7.20;55.30;;;;;;5092381;28;20238;-70
2023/04/14 01:15:46;;;;;;;3.83;2.70;;;7.20;54.00;;;;;;5091581;28;20179;-70
2023/04/14 01:18:18;;;;;;;5.80;2.93;;;7.20;55.90;;;;;;5092719;28;20298;-70
2023/04/14 01:20:48;;;;;;;4.23;2.73;;;7.20;54.80;;;;;;5092497;28;20263;-70
2023/04/14 01:23:34;;;;;;;4.13;2.73;;;7.20;54.80;;;;;;5092442;28;20168;-71
2023/04/14 01:26:30;;;;;;;4.37;2.60;;;7.20;54.60;;;;;;5092160;28;20294;-70
2023/04/14 01:29:29;;;;;;;4.13;2.40;;;7.20;55.00;;;;;;5093165;28;20168;-70
2023/04/14 01:32:09;;;;;;;3.37;2.50;;;7.20;54.90;;;;;;5096110;28;20167;-70
2023/04/14 01:34:40;;;;;;;5.30;2.83;;;7.20;54.50;;;;;;5096202;28;20187;-70
2023/04/14 01:37:12;;;;;;;5.20;2.73;;;7.10;55.90;;;;;;5096081;28;20635;-71
2023/04/14 01:39:47;;;;;;;4.90;2.83;;;7.10;57.40;;;;;;5095413;28;20273;-70
2023/04/14 01:42:17;;;;;;;4.10;2.70;;;7.10;60.00;;;;;;5095954;28;20179;-71
2023/04/14 01:44:51;;;;;;;7.27;2.83;;;7.10;62.40;;;;;;5095861;28;20191;-70
2023/04/14 01:47:19;;;;;;;3.30;2.63;;;7.10;59.80;;;;;;5096028;28;20179;-70
2023/04/14 01:49:46;;;;;;;7.30;2.50;;;7.10;59.50;;;;;;5096040;28;20167;-70
2023/04/14 01:52:14;;;;;;;5.37;2.40;;;7.10;59.20;;;;;;5095606;28;20168;-70
2023/04/14 01:54:42;;;;;;;4.43;2.40;;;7.10;58.00;;;;;;5095305;28;20275;-70
2023/04/14 01:57:12;;;;;;;4.43;2.20;;;7.10;57.00;;;;;;5095629;28;20764;-70
2023/04/14 01:59:40;;;;;;;3.03;2.20;;;7.20;55.90;;;;;;5096181;28;20168;-70
2023/04/14 02:02:07;;;;;;;5.80;2.63;;;7.20;53.50;;;;;;5094299;28;20198;-70
2023/04/14 02:04:34;;;;;;;5.97;2.70;;;7.20;52.10;;;;;;5095933;28;20241;-70
2023/04/14 02:07:04;;;;;;;5.03;2.50;;;7.30;52.10;;;;;;5095101;28;20788;-70
2023/04/14 02:09:40;;;;;;;2.43;1.93;;;7.20;52.30;;;;;;5095666;28;20190;-70
2023/04/14 02:12:08;;;;;;;3.57;2.13;;;7.30;48.80;;;;;;5095187;28;20171;-71
2023/04/14 02:14:35;;;;;;;3.20;2.10;;;7.20;50.00;;;;;;5095658;28;20241;-70
2023/04/14 02:17:01;;;;;;;5.47;2.07;;;7.20;49.20;;;;;;5095292;28;20180;-70
2023/04/14 02:19:29;;;;;;;2.80;2.40;;;7.30;48.30;;;;;;5095450;28;20163;-70
2023/04/14 02:21:59;;;;;;;5.73;2.00;;;7.20;46.80;;;;;;5094918;28;20176;-70
2023/04/14 02:24:25;;;;;;;3.07;2.30;;;7.20;47.30;;;;;;5095597;28;20164;-70
2023/04/14 02:26:58;;;;;;;3.33;2.20;;;7.20;48.70;;;;;;5095013;28;20562;-70
2023/04/14 02:29:25;;;;;;;4.53;2.23;;;7.20;50.90;;;;;;5095344;28;20631;-70
2023/04/14 02:32:02;;;;;;;3.47;2.60;;;7.20;50.00;;;;;;5095328;28;20183;-70
2023/04/14 02:34:32;;;;;;;4.30;2.80;;;7.10;52.30;;;;;;5095482;28;20213;-70
2023/04/14 02:37:01;;;;;;;5.20;3.23;;;7.10;51.90;;;;;;5093214;28;20176;-70
2023/04/14 02:39:31;;;;;;;11.63;4.60;;;7.10;51.70;;;;;;5093495;28;20281;-70
2023/04/14 02:42:06;;;;;;;7.87;4.10;;;7.10;53.20;;;;;;5093565;28;20175;-71
2023/04/14 02:44:42;;;;;;;10.17;4.53;;;7.10;52.10;;;;;;5095238;28;20164;-70
2023/04/14 02:47:10;;;;;;;8.00;4.60;;;7.10;51.70;;;;;;5094579;28;20284;-71
2023/04/14 02:49:40;;;;;;;9.87;4.47;;;7.10;53.70;;;;;;5094784;28;20175;-70
2023/04/14 02:52:10;;;;;;;11.27;4.00;;;7.10;54.50;;;;;;5094026;28;20210;-71
2023/04/14 02:54:39;;;;;;;9.47;4.33;;;7.10;54.60;;;;;;5094646;28;20203;-71
2023/04/14 02:57:05;;;;;;;6.10;3.73;;;7.10;53.60;;;;;;5094374;28;20168;-71
2023/04/14 02:59:32;;;;;;;6.87;3.33;;;7.10;52.20;;;;;;5094850;28;20209;-71
2023/04/14 03:02:01;;;;;;;5.63;3.30;;;7.00;53.50;;;;;;5094272;28;20244;-71
2023/04/14 03:04:30;;;;;;;9.20;3.37;;;7.00;54.30;;;;;;5094597;28;20706;-71
2023/04/14 03:06:56;;;;;;;7.00;2.80;;;7.00;53.20;;;;;;5093976;28;20199;-71
2023/04/14 03:09:24;;;;;;;6.17;3.23;;;6.90;54.10;;;;;;5094635;28;20164;-70
2023/04/14 03:11:51;;;;;;;4.00;3.00;;;6.90;56.60;;;;;;5093908;28;20184;-70
2023/04/14 03:14:18;;;;;;;7.90;3.47;;;6.90;56.30;;;;;;5094487;28;20167;-70
2023/04/14 03:16:53;;;;;;;7.63;3.27;;;6.80;60.20;;;;;;5093916;28;20175;-70
2023/04/14 03:19:23;;;;;;;6.10;3.23;;;6.80;63.50;;;;;;5093755;28;20210;-70
2023/04/14 03:21:49;;;;;;;6.93;3.20;;;6.80;63.30;;;;;;5093999;28;20171;-70
2023/04/14 03:24:23;;;;;;;6.23;3.10;;;6.80;60.20;;;;;;5094106;28;20214;-71
2023/04/14 03:26:51;;;;;;;5.63;3.10;;;6.80;58.90;;;;;;5092394;28;20257;-70
2023/04/14 03:29:20;;;;;;;5.10;2.83;;;6.80;57.50;;;;;;5094130;28;20562;-71
2023/04/14 03:31:46;;;;;;;5.90;3.20;;;6.80;57.80;;;;;;5093989;28;20164;-70
2023/04/14 03:34:18;;;;;;;4.30;2.97;;;6.80;59.10;;;;;;5092030;28;20566;-70
2023/04/14 03:36:49;;;;;;;6.33;3.20;;;6.80;57.80;;;;;;5093578;28;20168;-70
2023/04/14 03:39:17;;;;;;;7.57;3.30;;;6.80;56.20;;;;;;5093630;28;20250;-71
2023/04/14 03:41:48;;;;;;;7.53;3.57;;;6.80;56.30;;;;;;5093487;28;20168;-70
2023/04/14 03:44:24;;;;;;;7.97;3.27;;;6.80;56.80;;;;;;5093933;28;20259;-70
2023/04/14 03:46:50;;;;;;;4.87;3.20;;;6.70;55.80;;;;;;5092074;28;20266;-71
2023/04/14 03:49:17;;;;;;;6.83;3.00;;;6.70;57.90;;;;;;5093541;28;20160;-70
2023/04/14 03:51:50;;;;;;;5.80;2.73;;;6.70;59.00;;;;;;5092706;28;20220;-70
2023/04/14 03:54:18;;;;;;;7.73;3.40;;;6.70;60.00;;;;;;5093292;28;20290;-70
2023/04/14 03:56:47;;;;;;;8.17;3.63;;;6.70;58.60;;;;;;5093244;28;20187;-70
2023/04/14 03:59:15;;;;;;;6.97;3.13;;;6.80;58.40;;;;;;5093414;28;20266;-70
2023/04/14 04:01:42;;;;;;;4.27;3.03;;;6.80;58.10;;;;;;5093364;28;20179;-71
2023/04/14 04:04:08;;;;;;;7.40;3.30;;;6.70;58.90;;;;;;5092690;28;20179;-70
2023/04/14 04:06:36;;;;;;;9.90;3.40;;;6.70;59.60;;;;;;5093101;28;20207;-70
2023/04/14 04:09:01;;;;;;;6.13;3.10;;;6.70;59.30;;;;;;5092970;28;20187;-71
2023/04/14 04:11:29;;;;;;;12.73;3.50;;;6.80;61.30;;;;;;5091894;28;20168;-70
2023/04/14 04:13:56;;;;;;;4.30;3.50;;;6.80;62.10;;;;;;5093019;28;20167;-70
2023/04/14 04:16:26;;;;;;;8.60;3.87;;;6.80;63.50;;;;;;5092778;28;20175;-70
2023/04/14 04:18:55;;;;;;;4.57;2.70;;;6.80;65.10;;;;;;5092375;28;20176;-70
2023/04/14 04:21:22;;;;;;;7.67;3.40;;;6.70;64.90;;;;;;5092902;28;20174;-70
2023/04/14 04:23:52;;;;;;;8.07;3.40;;;6.80;65.00;;;;;;5092854;28;20164;-71
2023/04/14 04:26:18;;;;;;;9.47;3.40;;;6.80;64.80;;;;;;5093167;28;20206;-70
2023/04/14 04:28:45;;;;;;;9.13;3.37;;;6.80;64.60;;;;;;5092725;28;20164;-70
2023/04/14 04:31:13;;;;;;;6.53;3.50;;;6.80;64.30;;;;;;5092549;28;20615;-70
2023/04/14 04:33:39;;;;;;;5.40;3.20;;;6.80;63.10;;;;;;5090726;28;20167;-70
2023/04/14 04:36:05;;;;;;;5.93;3.17;;;6.80;63.20;;;;;;5092965;28;20167;-71
2023/04/14 04:38:37;;;;;;;6.93;3.07;;;6.70;63.00;;;;;;5092443;28;20639;-71
2023/04/14 04:41:03;;;;;;;11.13;4.00;;;6.70;63.90;;;;;;5092434;28;20190;-71
2023/04/14 04:43:28;;;;;;;6.67;2.73;;;6.70;64.70;;;;;;5092441;28;20568;-70
2023/04/14 04:45:57;;;;;;;7.13;3.23;;;6.70;64.70;;;;;;5092212;28;20304;-69
2023/04/14 04:48:23;;;;;;;7.10;3.67;;;6.70;65.20;;;;;;5092371;28;20164;-70
2023/04/14 04:50:48;;;;;;;4.33;2.93;;;6.70;65.20;;;;;;5092744;28;20183;-70
2023/04/14 04:53:14;;;;;;;4.20;3.00;;;6.60;66.30;;;;;;5092342;28;20164;-70
2023/04/14 04:55:42;;;;;;;7.57;3.13;;;6.70;68.60;;;;;;5092274;28;20172;-71
2023/04/14 04:58:08;;;;;;;6.60;3.37;;;6.70;67.70;;;;;;5091989;28;20588;-71
2023/04/14 05:00:34;;;;;;;6.47;2.97;;;6.70;66.80;;;;;;5091589;28;20252;-70
2023/04/14 05:02:59;;;;;;;4.77;2.87;;;6.60;68.10;;;;;;5090709;28;20186;-70
2023/04/14 05:05:26;;;;;;;6.47;3.40;;;6.60;69.40;;;;;;5095417;28;20192;-73
2023/04/14 05:07:51;;;;;;;7.00;3.13;;;6.60;71.80;;;;;;5094633;28;20180;-70
2023/04/14 05:10:17;;;;;;;8.90;3.60;;;6.70;72.70;;;;;;5096406;28;20233;-70
2023/04/14 05:12:42;;;;;;;8.80;3.60;;;6.80;67.50;;;;;;5095880;28;20266;-70
2023/04/14 05:15:08;;;;;;;5.53;3.40;;;7.00;60.20;;;;;;5095317;28;20194;-70
2023/04/14 05:17:34;;;;;;;9.27;3.73;;;6.90;51.40;;;;;;5095769;28;20168;-70
2023/04/14 05:20:01;;;;;;;7.00;3.37;;;6.90;55.80;;;;;;5096411;28;20160;-71
2023/04/14 05:22:27;;;;;;;5.00;3.00;;;6.80;56.20;;;;;;5095632;28;20175;-70
2023/04/14 05:24:52;;;;;;;5.53;3.47;;;6.80;59.30;;;;;;5095927;28;20164;-70
2023/04/14 05:27:18;;;;;;;10.40;3.73;;;6.70;61.60;;;;;;5093578;28;20208;-70
2023/04/14 05:29:44;;;;;;;8.73;3.60;;;6.70;64.20;;;;;;5094404;28;20495;-71
2023/04/14 05:32:11;;;;;;;10.70;3.70;;;6.70;64.60;;;;;;5095534;28;20176;-70
2023/04/14 05:34:36;;;;;;;8.57;3.63;;;6.80;63.80;;;;;;5094093;28;20171;-70
2023/04/14 05:37:02;;;;;;;8.57;3.70;;;6.90;63.10;;;;;;5094423;28;20182;-71
2023/04/14 05:39:27;;;;;;;7.23;3.50;;;6.90;59.30;;;;;;5094627;28;20224;-71
2023/04/14 05:41:53;;;;;;;9.37;4.10;;;7.00;62.50;;;;;;5095272;28;20176;-71
2023/04/14 05:44:19;;;;;;;11.20;4.20;;;7.70;54.20;;;;;;5094444;28;20184;-71
2023/04/14 05:46:45;;;;;;;5.43;3.37;;;9.10;5.80;;;;;;5094919;28;20208;-73
2023/04/14 05:49:11;;;;;;;9.17;3.80;;;10.20;1.00;;;;;;5095402;28;20237;-73
2023/04/14 05:51:42;;;;;;;8.40;4.03;;;10.50;1.00;;;;;;5095416;28;20631;-72
2023/04/14 05:54:08;;;;;;;9.80;4.20;;;10.20;1.00;;;;;;5095098;28;20168;-73
2023/04/14 05:56:33;;;;;;;7.23;3.80;;;10.00;1.00;;;;;;5093432;28;20221;-72
2023/04/14 05:59:00;;;;;;;7.07;3.47;;;9.90;1.00;;;;;;5093853;28;20220;-73
2023/04/14 06:01:26;;;;;;;6.10;3.47;;;10.70;1.00;;;;;;5094689;28;20168;-72
2023/04/14 06:03:51;;;;;;;7.07;4.13;;;11.30;1.00;;;;;;5094679;28;20238;-72
2023/04/14 06:06:18;;;;;;;6.33;3.77;;;11.60;1.00;;;;;;5093589;28;20261;-71
2023/04/14 06:08:44;;;;;;;5.70;3.87;;;11.30;1.00;;;;;;5092156;28;20214;-70
2023/04/14 06:11:10;;;;;;;6.27;4.30;;;10.40;1.00;;;;;;5090579;28;20675;-71
2023/04/14 06:13:36;;;;;;;7.27;4.23;;;9.70;1.00;;;;;;5091694;28;20254;-69
2023/04/14 06:16:02;;;;;;;7.53;3.80;;;9.30;1.00;;;;;;5092766;28;20179;-72
2023/04/14 06:18:27;;;;;;;7.63;3.70;;;8.90;1.00;;;;;;5092541;28;20224;-71
2023/04/14 06:20:53;;;;;;;4.37;3.93;;;8.90;1.00;;;;;;5090707;28;20546;-71
2023/04/14 06:23:20;;;;;;;6.60;3.97;;;8.80;1.00;;;;;;5091017;28;20180;-70
2023/04/14 06:25:46;;;;;;;6.40;4.27;;;8.70;1.00;;;;;;5093091;28;20196;-70
2023/04/14 06:28:11;;;;;;;10.63;4.20;;;8.80;1.00;;;;;;5090708;28;20190;-70
2023/04/14 06:30:37;;;;;;;6.77;3.33;;;9.00;1.00;;;;;;5093124;28;20172;-71
2023/04/14 06:33:03;;;;;;;6.33;3.60;;;9.00;1.00;;;;;;5093477;28;20171;-71
2023/04/14 06:35:34;;;;;;;6.93;3.43;;;9.10;1.00;;;;;;5093304;28;20176;-71
2023/04/14 06:38:01;;;;;;;3.40;3.10;;;9.20;1.00;;;;;;5092344;28;20251;-72
2023/04/14 06:40:27;;;;;;;4.10;2.67;;;9.50;1.00;;;;;;5091157;28;20224;-71
2023/04/14 06:42:52;;;;;;;4.83;3.03;;;9.80;1.00;;;;;;5093401;28;20179;-72
2023/04/14 06:45:24;;;;;;;7.03;3.07;;;10.50;1.00;;;;;;5091227;28;20216;-73
2023/04/14 06:47:50;;;;;;;4.97;2.43;;;11.50;1.00;;;;;;5093916;28;20225;-72
2023/04/14 06:50:16;;;;;;;6.30;3.10;;;13.40;99.90;;;;;;5093342;28;20200;-71
2023/04/14 06:52:45;;;;;;;6.30;2.63;;;15.30;1.00;;;;;;5093227;28;20195;-72
2023/04/14 06:55:10;;;;;;;5.77;2.60;;;15.90;99.90;;;;;;5093349;28;20172;-73
2023/04/14 06:57:37;;;;;;;3.07;2.33;;;16.80;1.00;;;;;;5093313;28;20229;-73
2023/04/14 07:00:04;;;;;;;5.00;2.85;;;16.90;1.00;;;;;;5100606;28;20660;-75
2023/04/14 07:02:29;;;;;;;4.10;2.28;;;17.20;99.90;;;;;;5114132;28;20199;-73
2023/04/14 07:04:55;;;;;;;4.30;2.75;;;17.30;99.90;;;;;;5095201;28;20178;-76
2023/04/14 07:07:21;;;;;;;5.65;2.47;;;17.70;99.90;;;;;;5113868;28;20256;-72
2023/04/14 07:09:46;;;;;;;8.40;2.42;;;18.80;1.00;;;;;;5113427;28;20170;-74
2023/04/14 07:12:15;;;;;;;4.55;2.35;;;19.90;1.00;;;;;;5113538;28;20633;-74
2023/04/14 07:14:41;;;;;;;4.45;2.58;;;20.60;1.00;;;;;;5113374;28;20159;-74
2023/04/14 07:17:07;;;;;;;3.78;2.40;;;21.10;99.90;;;;;;5095327;28;20171;-73
2023/04/14 07:19:42;;;;;;;2.90;2.13;;;21.50;99.90;;;;;;5092546;28;20164;-74
2023/04/14 07:22:07;;;;;;;3.53;2.30;;;21.80;99.90;;;;;;5092490;28;20707;-73
2023/04/14 07:24:33;;;;;;;5.45;2.50;;;22.10;99.90;;;;;;5093482;28;20269;-72
2023/04/14 07:26:59;;;;;;;3.08;2.25;;;21.70;99.90;;;;;;5092328;28;20207;-73
2023/04/14 07:29:26;;;;;;;3.97;2.40;;;21.60;99.90;;;;;;5093318;28;20164;-74
2023/04/14 07:31:54;;;;;;;4.93;2.20;;;22.30;99.90;;;;;;5092070;28;20168;-73
2023/04/14 07:34:23;;;;;;;4.72;2.67;;;20.90;99.90;;;;;;5093243;28;20164;-73
2023/04/14 07:36:51;;;;;;;6.90;4.15;;;20.70;99.90;;;;;;5093042;28;20172;-72
2023/04/14 07:39:18;;;;;;;4.88;2.35;;;21.00;99.90;;;;;;5092767;28;20277;-74
2023/04/14 07:41:43;;;;;;;2.80;2.10;;;21.30;99.90;;;;;;5090889;28;20613;-74
2023/04/14 07:44:09;;;;;;;5.20;2.45;;;20.90;99.90;;;;;;5092069;28;20266;-73
2023/04/14 07:46:35;;;;;;;4.65;2.25;;;20.10;99.90;;;;;;5092757;28;20307;-73
2023/04/14 07:49:00;;;;;;;5.35;2.88;;;20.80;99.90;;;;;;5092449;28;20179;-72
2023/04/14 07:51:26;;;;;;;3.35;2.25;;;22.10;99.90;;;;;;5105410;28;20626;-74
2023/04/14 07:53:51;;;;;;;3.63;2.22;;;22.50;99.90;;;;;;5112796;28;20228;-73
2023/04/14 07:56:21;;;;;;;4.70;2.30;;;22.40;99.90;;;;;;5112577;28;20221;-73
2023/04/14 07:58:46;;;;;;;4.15;2.20;;;22.70;99.90;;;;;;5113144;28;20626;-72
2023/04/14 08:01:13;;;;;;;3.05;2.10;;;22.80;99.90;;;;;;5113318;28;20171;-73
2023/04/14 08:03:41;;;;;;;3.15;1.92;;;22.60;99.90;;;;;;5112734;28;20163;-74
2023/04/14 08:06:07;;;;;;;4.07;2.40;;;22.10;99.90;;;;;;5113138;28;20312;-75
2023/04/14 08:08:34;;;;;;;7.13;2.30;;;22.20;99.90;;;;;;5113043;28;20254;-74
2023/04/14 08:11:02;;;;;;;2.75;2.03;;;23.60;99.90;;;;;;5112421;28;20677;-74
2023/04/14 08:13:28;;;;;;;2.25;1.60;;;22.90;99.90;;;;;;5103870;28;20187;-75
2023/04/14 08:15:54;;;;;;;3.25;2.00;;;21.90;99.90;;;;;;5086053;28;20180;-75
2023/04/14 08:18:20;;;;;;;5.28;2.03;;;22.70;99.90;;;;;;5090936;28;20645;-75
2023/04/14 08:20:46;;;;;;;2.83;1.52;;;23.50;99.90;;;;;;5089645;28;20639;-75
2023/04/14 08:23:32;;;;;;;4.95;1.70;;;23.10;99.90;;;;;;5103144;28;20267;-75
2023/04/14 08:25:57;;;;;;;2.35;1.80;;;22.70;99.90;;;;;;5112527;28;20199;-74
2023/04/14 08:28:23;;;;;;;3.97;2.35;;;23.00;99.90;;;;;;5111764;28;20167;-76
2023/04/14 08:30:49;;;;;;;2.50;1.95;;;23.70;99.90;;;;;;5112219;28;20159;-76
2023/04/14 08:33:15;;;;;;;2.95;1.40;;;24.00;99.90;;;;;;5112058;28;20623;-75
2023/04/14 08:35:41;;;;;;;2.63;1.75;;;23.40;99.90;;;;;;5112377;28;20171;-76
2023/04/14 08:38:06;;;;;;;2.90;1.80;;;22.60;99.90;;;;;;5113520;28;20166;-75
2023/04/14 08:40:37;;;;;;;3.97;2.00;;;21.70;99.90;;;;;;5116767;28;20283;-74
2023/04/14 08:43:03;;;;;;;3.08;1.80;;;21.00;99.90;;;;;;5116624;28;20171;-72
2023/04/14 08:45:32;;;;;;;3.47;1.83;;;20.60;99.90;;;;;;5115243;28;20249;-73
2023/04/14 08:48:19;;;;;;;3.55;2.10;;;19.20;99.90;;;;;;5113769;28;20181;-74
2023/04/14 08:51:06;;;;;;;2.90;1.67;;;19.10;1.00;;;;;;5116195;27;20176;-72
2023/04/14 08:53:32;;;;;;;2.15;1.50;;;20.00;99.90;;;;;;5115873;28;20259;-74
2023/04/14 08:56:03;;;;;;;2.22;1.60;;;20.60;99.90;;;;;;5115126;27;20167;-74
2023/04/14 08:58:30;;;;;;;3.20;1.90;;;19.40;99.90;;;;;;5116661;28;20254;-73
2023/04/14 09:00:59;;;;;;;2.20;1.67;;;19.40;99.90;;;;;;5115510;28;20171;-72
2023/04/14 09:03:25;;;;;;;3.17;1.80;;;19.30;1.00;;;;;;5116613;28;20198;-73
2023/04/14 09:05:51;;;;;;;2.92;1.38;;;20.00;99.90;;;;;;5116072;28;20265;-73
2023/04/14 09:08:19;;;;;;;3.40;2.03;;;19.90;99.90;;;;;;5115804;28;20193;-73
2023/04/14 09:10:45;;;;;;;2.47;1.60;;;20.70;99.90;;;;;;5115762;28;20171;-72
2023/04/14 09:13:14;;;;;;;3.97;1.63;;;22.00;99.90;;;;;;5113549;28;20171;-72
2023/04/14 09:15:39;;;;;;;3.20;1.42;;;22.90;99.90;;;;;;5095521;28;20178;-72
2023/04/14 09:18:05;;;;;;;1.75;1.40;;;23.50;99.90;;;;;;5095895;28;20266;-73
2023/04/14 09:20:32;;;;;;;3.60;1.58;;;21.60;99.90;;;;;;5088925;28;20190;-74
2023/04/14 09:22:57;;;;;;;3.92;1.98;;;20.50;99.90;;;;;;5080985;28;20180;-70
2023/04/14 09:25:23;;;;;;;1.90;1.30;;;19.80;99.90;;;;;;5086482;28;20281;-71
2023/04/14 09:27:49;;;;;;;3.40;1.70;;;18.10;1.00;;;;;;5075071;28;20173;-70
2023/04/14 09:30:16;;;;;;;2.83;1.83;;;18.20;1.00;;;;;;5073968;28;20176;-71
2023/04/14 09:32:43;;;;;;;1.80;1.70;;;18.60;1.00;;;;;;5073922;28;20169;-72
2023/04/14 09:35:12;;;;;;;6.53;1.73;;;19.20;99.90;;;;;;5074496;28;20253;-69
2023/04/14 09:37:45;;;;;;;4.15;2.15;;;19.20;99.90;;;;;;5091313;28;20530;-71
2023/04/14 09:40:28;;;;;;;5.47;1.77;;;18.10;1.00;;;;;;5095663;28;20223;-71
2023/04/14 09:42:55;;;;;;;6.78;1.95;;;19.10;1.00;;;;;;5095107;28;20164;-70
2023/04/14 09:45:21;;;;;;;3.28;1.77;;;18.90;1.00;;;;;;5094672;28;20168;-71
2023/04/14 09:47:47;;;;;;;1.70;1.60;;;18.90;99.90;;;;;;5093690;28;20172;-70
2023/04/14 09:50:13;;;;;;;2.85;1.77;;;19.20;99.90;;;;;;5091388;28;20172;-69
2023/04/14 09:52:43;;;;;;;2.25;1.80;;;19.60;99.90;;;;;;5091283;28;20179;-73
2023/04/14 09:55:14;;;;;;;4.25;1.80;;;18.70;99.90;;;;;;5093387;28;20186;-73
2023/04/14 09:57:46;;;;;;;4.03;1.50;;;19.80;99.90;;;;;;5094863;28;20170;-76
2023/04/14 10:00:14;;;;;;;5.15;2.00;;;19.10;99.90;;;;;;5095467;28;20168;-72
2023/04/14 10:02:49;;;;;;;2.60;1.63;;;18.10;1.00;;;;;;5094411;28;20176;-74
2023/04/14 10:05:18;;;;;;;3.63;1.70;;;17.70;1.00;;;;;;5073457;28;20562;-73
2023/04/14 10:07:43;;;;;;;5.88;1.48;;;18.80;1.00;;;;;;5073879;28;20173;-73
2023/04/14 10:10:12;;;;;;;1.83;1.48;;;18.30;1.00;;;;;;5074536;28;20620;-74
2023/04/14 10:12:40;;;;;;;4.63;1.80;;;17.90;1.00;;;;;;5072714;28;20510;-71
2023/04/14 10:15:13;;;;;;;4.22;1.90;;;17.00;1.00;;;;;;5074294;28;20227;-71
2023/04/14 10:17:39;;;;;;;2.78;2.00;;;16.20;99.90;;;;;;5073958;28;20161;-72
2023/04/14 10:20:05;;;;;;;3.08;2.00;;;16.10;1.00;;;;;;5074005;28;20233;-70
2023/04/14 10:22:32;;;;;;;6.03;1.60;;;16.20;1.00;;;;;;5073423;28;20675;-71
2023/04/14 10:25:00;;;;;;;4.37;1.70;;;15.80;1.00;;;;;;5074256;28;20299;-72
2023/04/14 10:27:31;;;;;;;2.13;1.40;;;16.00;1.00;;;;;;5074329;28;20204;-72
2023/04/14 10:29:58;;;;;;;2.10;1.80;;;15.50;1.00;;;;;;5072640;28;20552;-72
2023/04/14 10:32:28;;;;;;;3.43;1.70;;;15.70;4.80;;;;;;5073897;28;20176;-74
2023/04/14 10:35:05;;;;;;;1.97;1.57;;;15.30;99.90;;;;;;5074178;28;20177;-71
2023/04/14 10:37:32;;;;;;;4.67;1.50;;;15.10;1.00;;;;;;5073572;28;20168;-72
2023/04/14 10:39:59;;;;;;;4.07;1.70;;;15.00;1.00;;;;;;5073800;28;20780;-71
2023/04/14 10:42:27;;;;;;;4.93;2.10;;;14.90;1.00;;;;;;5073603;28;20169;-71
2023/04/14 10:45:05;;;;;;;3.67;1.40;;;15.50;1.00;;;;;;5073603;28;20180;-71
2023/04/14 10:47:34;;;;;;;2.47;1.33;;;15.70;99.90;;;;;;5072873;28;20679;-72
2023/04/14 10:50:13;;;;;;;3.73;1.93;;;15.70;32.50;;;;;;5073545;28;20176;-73
2023/04/14 10:52:54;;;;;;;5.13;1.63;;;15.60;1.00;;;;;;5073167;28;20165;-73
2023/04/14 10:55:24;;;;;;;4.40;1.60;;;15.70;1.00;;;;;;5073430;28;20172;-74
2023/04/14 10:57:51;;;;;;;4.13;1.73;;;15.40;1.00;;;;;;5072150;28;20180;-72
2023/04/14 11:00:19;;;;;;;2.90;1.60;;;16.00;1.00;;;;;;5073676;28;20388;-73
2023/04/14 11:03:02;;;;;;;14.45;3.05;;;16.20;99.90;;;;;;5076288;28;20265;-75
2023/04/14 11:05:30;;;;;;;3.30;1.30;;;16.50;1.00;;;;;;5087613;28;20204;-72
2023/04/14 11:07:57;;;;;;;3.33;1.60;;;16.50;1.00;;;;;;5072736;28;20216;-71
2023/04/14 11:10:24;;;;;;;4.65;1.50;;;16.50;1.00;;;;;;5073166;28;20282;-71
2023/04/14 11:13:11;;;;;;;3.50;1.27;;;16.90;1.00;;;;;;5073060;28;20260;-71
2023/04/14 11:16:09;;;;;;;3.57;1.10;;;16.50;1.00;;;;;;5072771;28;20648;-71
2023/04/14 11:18:44;;;;;;;5.17;1.50;;;15.90;70.40;;;;;;5010716;28;20209;-71
2023/04/14 11:21:14;;;;;;;2.80;1.40;;;15.40;1.00;;;;;;5011531;28;20264;-69
2023/04/14 11:23:41;;;;;;;5.10;1.70;;;15.40;1.00;;;;;;5011703;28;20182;-72
2023/04/14 11:26:17;;;;;;;4.20;1.50;;;15.30;99.90;;;;;;5010871;28;20701;-72
2023/04/14 11:28:44;;;;;;;2.43;1.30;;;16.10;1.00;;;;;;5010807;28;20182;-71
2023/04/14 11:31:12;;;;;;;8.25;2.47;;;16.80;97.50;;;;;;5027719;28;20181;-72
2023/04/14 11:33:40;;;;;;;5.28;1.67;;;17.20;30.20;;;;;;5013023;28;20209;-73
2023/04/14 11:36:08;;;;;;;2.50;1.15;;;17.70;1.00;;;;;;5029456;28;20198;-74
2023/04/14 11:38:38;;;;;;;4.88;1.80;;;17.70;1.00;;;;;;5029249;28;20221;-75
2023/04/14 11:41:04;;;;;;;5.78;1.38;;;17.90;1.00;;;;;;5030137;28;20676;-73
2023/04/14 11:43:30;;;;;;;2.20;1.35;;;17.90;1.00;;;;;;5029687;28;20312;-74
2023/04/14 11:45:57;;;;;;;2.58;1.25;;;16.90;1.00;;;;;;5029130;28;20704;-71
2023/04/14 11:48:23;;;;;;;4.45;1.17;;;16.40;1.00;;;;;;5012610;28;20184;-72
2023/04/14 11:50:48;;;;;;;2.03;1.42;;;16.20;99.90;;;;;;5030487;28;20173;-71
2023/04/14 11:53:18;;;;;;;1.90;1.20;;;16.30;99.90;;;;;;5037409;28;20609;-73
2023/04/14 11:55:45;;;;;;;3.43;1.30;;;15.90;99.90;;;;;;5092874;28;20228;-72
2023/04/14 11:58:19;;;;;;;1.70;1.00;;;16.10;1.00;;;;;;5092447;28;20692;-73
2023/04/14 12:00:47;;;;;;;2.13;1.40;;;16.70;99.90;;;;;;5091116;28;20170;-71
2023/04/14 12:03:13;;;;;;;1.17;1.00;;;16.90;99.90;;;;;;5092468;28;20159;-72
2023/04/14 12:05:39;;;;;;;1.10;0.97;;;16.70;1.00;;;;;;5092309;28;20290;-71
2023/04/14 12:08:07;;;;;;;3.53;1.30;;;16.20;99.90;;;;;;5091914;28;20643;-71
2023/04/14 12:10:33;;;;;;;2.67;1.30;;;16.20;99.90;;;;;;5090844;28;20312;-73
2023/04/14 12:13:00;;;;;;;2.90;1.47;;;16.00;99.90;;;;;;5089820;28;20661;-70
2023/04/14 12:15:27;;;;;;;2.00;0.90;;;16.20;99.90;;;;;;5091288;28;20198;-72
2023/04/14 12:17:57;;;;;;;3.63;1.30;;;16.10;99.90;;;;;;5091870;28;20188;-72
2023/04/14 12:20:23;;;;;;;1.80;1.13;;;16.10;99.90;;;;;;5091848;28;20179;-72
2023/04/14 12:22:49;;;;;;;0.90;0.90;;;15.90;99.90;;;;;;5092466;28;20252;-71
2023/04/14 12:25:15;;;;;;;3.03;1.20;;;15.60;99.90;;;;;;5091867;28;20253;-72
2023/04/14 12:27:41;;;;;;;2.10;1.10;;;15.60;1.00;;;;;;5091926;28;20646;-73
2023/04/14 12:30:08;;;;;;;3.50;1.10;;;15.50;99.90;;;;;;5090276;28;20180;-72
2023/04/14 12:32:40;;;;;;;2.27;1.00;;;15.20;1.00;;;;;;5091206;28;20188;-71
2023/04/14 12:35:06;;;;;;;2.23;1.10;;;15.30;1.00;;;;;;5091491;28;20168;-70
2023/04/14 12:37:33;;;;;;;1.63;1.03;;;15.30;1.00;;;;;;5091282;28;20250;-71
2023/04/14 12:40:00;;;;;;;4.03;1.10;;;15.70;99.90;;;;;;5091988;28;20228;-71
2023/04/14 12:42:27;;;;;;;1.40;1.10;;;15.80;99.90;;;;;;5092611;28;20203;-72
2023/04/14 12:44:59;;;;;;;1.67;1.00;;;15.90;1.00;;;;;;5092099;28;20160;-71
2023/04/14 12:47:34;;;;;;;2.03;0.90;;;15.70;1.00;;;;;;5089931;28;20573;-73
2023/04/14 12:50:21;;;;;;;3.90;1.00;;;15.40;10.70;;;;;;5091723;28;20175;-71
2023/04/14 12:52:46;;;;;;;1.57;0.90;;;15.60;36.80;;;;;;5092094;28;20178;-71
2023/04/14 12:55:20;;;;;;;2.27;1.30;;;15.40;99.90;;;;;;5090475;28;20171;-73
2023/04/14 12:57:47;;;;;;;2.73;1.10;;;15.30;1.00;;;;;;5091847;28;20631;-74
2023/04/14 13:00:13;;;;;;;2.97;1.10;;;15.40;1.00;;;;;;5091228;28;20176;-73
2023/04/14 13:02:39;;;;;;;3.23;1.10;;;15.40;1.00;;;;;;5092260;28;20168;-73